sensor_id;sensor_type;location;lat;lon;timestamp;temperature;humidity
76172;DHT22;64929;51.178;4.138;2022-12-18T00:03:55;-1.10;77.10
76172;DHT22;64929;51.178;4.138;2022-12-18T00:06:22;-1.00;76.60
76172;DHT22;64929;51.178;4.138;2022-12-18T00:08:48;-1.00;76.50
76172;DHT22;64929;51.178;4.138;2022-12-18T00:11:16;-1.00;76.20
76172;DHT22;64929;51.178;4.138;2022-12-18T00:13:42;-1.20;75.70
76172;DHT22;64929;51.178;4.138;2022-12-18T00:16:10;-1.30;76.70
76172;DHT22;64929;51.178;4.138;2022-12-18T00:18:36;-1.30;76.80
76172;DHT22;64929;51.178;4.138;2022-12-18T00:21:05;-1.20;76.50
76172;DHT22;64929;51.178;4.138;2022-12-18T00:23:33;-1.20;76.20
76172;DHT22;64929;51.178;4.138;2022-12-18T00:26:03;-1.20;75.80
76172;DHT22;64929;51.178;4.138;2022-12-18T00:28:29;-1.20;76.20
76172;DHT22;64929;51.178;4.138;2022-12-18T00:31:06;-1.40;76.20
76172;DHT22;64929;51.178;4.138;2022-12-18T00:33:33;-1.30;76.40
76172;DHT22;64929;51.178;4.138;2022-12-18T00:36:06;-1.30;75.70
76172;DHT22;64929;51.178;4.138;2022-12-18T00:38:33;-1.40;75.90
76172;DHT22;64929;51.178;4.138;2022-12-18T00:40:59;-1.40;75.80
76172;DHT22;64929;51.178;4.138;2022-12-18T00:43:25;-1.40;76.20
76172;DHT22;64929;51.178;4.138;2022-12-18T00:45:51;-1.40;76.00
76172;DHT22;64929;51.178;4.138;2022-12-18T00:48:16;-1.50;76.20
76172;DHT22;64929;51.178;4.138;2022-12-18T00:50:42;-1.50;76.30
76172;DHT22;64929;51.178;4.138;2022-12-18T00:53:08;-1.40;75.90
76172;DHT22;64929;51.178;4.138;2022-12-18T00:55:34;-1.40;76.00
76172;DHT22;64929;51.178;4.138;2022-12-18T00:57:59;-1.50;76.50
76172;DHT22;64929;51.178;4.138;2022-12-18T01:00:25;-1.50;76.20
76172;DHT22;64929;51.178;4.138;2022-12-18T01:02:51;-1.70;76.50
76172;DHT22;64929;51.178;4.138;2022-12-18T01:05:17;-1.50;76.40
76172;DHT22;64929;51.178;4.138;2022-12-18T01:07:42;-1.50;75.80
76172;DHT22;64929;51.178;4.138;2022-12-18T01:10:09;-1.40;75.20
76172;DHT22;64929;51.178;4.138;2022-12-18T01:12:37;-1.60;75.30
76172;DHT22;64929;51.178;4.138;2022-12-18T01:15:04;-1.70;76.10
76172;DHT22;64929;51.178;4.138;2022-12-18T01:17:30;-1.60;76.40
76172;DHT22;64929;51.178;4.138;2022-12-18T01:19:56;-1.60;75.80
76172;DHT22;64929;51.178;4.138;2022-12-18T01:22:21;-1.80;75.90
76172;DHT22;64929;51.178;4.138;2022-12-18T01:24:47;-1.90;76.20
76172;DHT22;64929;51.178;4.138;2022-12-18T01:27:13;-2.00;77.20
76172;DHT22;64929;51.178;4.138;2022-12-18T01:29:38;-1.90;76.80
76172;DHT22;64929;51.178;4.138;2022-12-18T01:32:04;-1.90;75.90
76172;DHT22;64929;51.178;4.138;2022-12-18T01:34:30;-1.90;75.80
76172;DHT22;64929;51.178;4.138;2022-12-18T01:36:56;-1.90;76.10
76172;DHT22;64929;51.178;4.138;2022-12-18T01:39:21;-2.00;76.50
76172;DHT22;64929;51.178;4.138;2022-12-18T01:41:47;-1.90;76.20
76172;DHT22;64929;51.178;4.138;2022-12-18T01:50:11;-1.90;75.80
76172;DHT22;64929;51.178;4.138;2022-12-18T01:52:40;-1.90;75.80
76172;DHT22;64929;51.178;4.138;2022-12-18T01:55:08;-1.80;75.60
76172;DHT22;64929;51.178;4.138;2022-12-18T01:57:34;-1.90;75.20
76172;DHT22;64929;51.178;4.138;2022-12-18T02:00:05;-1.80;75.60
76172;DHT22;64929;51.178;4.138;2022-12-18T02:02:31;-2.00;75.20
76172;DHT22;64929;51.178;4.138;2022-12-18T02:04:57;-2.10;75.60
76172;DHT22;64929;51.178;4.138;2022-12-18T02:13:13;-2.00;75.70
76172;DHT22;64929;51.178;4.138;2022-12-18T02:15:47;-2.10;75.60
76172;DHT22;64929;51.178;4.138;2022-12-18T02:18:24;-2.10;75.50
76172;DHT22;64929;51.178;4.138;2022-12-18T02:21:13;-2.10;76.00
76172;DHT22;64929;51.178;4.138;2022-12-18T02:26:53;-2.30;76.10
76172;DHT22;64929;51.178;4.138;2022-12-18T02:29:21;-2.40;76.20
76172;DHT22;64929;51.178;4.138;2022-12-18T02:31:53;-2.40;76.60
76172;DHT22;64929;51.178;4.138;2022-12-18T02:34:22;-2.40;76.50
76172;DHT22;64929;51.178;4.138;2022-12-18T02:36:50;-2.40;76.30
76172;DHT22;64929;51.178;4.138;2022-12-18T02:39:16;-2.50;76.60
76172;DHT22;64929;51.178;4.138;2022-12-18T02:41:43;-2.40;76.40
76172;DHT22;64929;51.178;4.138;2022-12-18T02:44:11;-2.40;76.60
76172;DHT22;64929;51.178;4.138;2022-12-18T02:54:48;-2.60;76.60
76172;DHT22;64929;51.178;4.138;2022-12-18T02:57:23;-2.50;76.20
76172;DHT22;64929;51.178;4.138;2022-12-18T03:00:19;-2.40;75.70
76172;DHT22;64929;51.178;4.138;2022-12-18T03:02:50;-2.60;76.10
76172;DHT22;64929;51.178;4.138;2022-12-18T03:05:30;-2.60;76.30
76172;DHT22;64929;51.178;4.138;2022-12-18T03:08:03;-2.60;76.10
76172;DHT22;64929;51.178;4.138;2022-12-18T03:10:32;-2.60;76.40
76172;DHT22;64929;51.178;4.138;2022-12-18T03:15:50;-2.60;76.50
76172;DHT22;64929;51.178;4.138;2022-12-18T03:18:24;-2.50;75.70
76172;DHT22;64929;51.178;4.138;2022-12-18T03:20:53;-2.60;75.80
76172;DHT22;64929;51.178;4.138;2022-12-18T03:23:24;-2.60;75.80
76172;DHT22;64929;51.178;4.138;2022-12-18T03:25:53;-2.60;76.50
76172;DHT22;64929;51.178;4.138;2022-12-18T03:28:22;-2.40;75.30
76172;DHT22;64929;51.178;4.138;2022-12-18T03:30:53;-2.40;75.00
76172;DHT22;64929;51.178;4.138;2022-12-18T03:33:27;-2.20;74.50
76172;DHT22;64929;51.178;4.138;2022-12-18T03:35:54;-2.20;74.20
76172;DHT22;64929;51.178;4.138;2022-12-18T03:38:20;-2.10;74.00
76172;DHT22;64929;51.178;4.138;2022-12-18T03:43:49;-2.20;73.80
76172;DHT22;64929;51.178;4.138;2022-12-18T03:46:30;-2.30;73.90
76172;DHT22;64929;51.178;4.138;2022-12-18T03:52:12;-2.30;74.30
76172;DHT22;64929;51.178;4.138;2022-12-18T03:54:41;-2.20;73.50
76172;DHT22;64929;51.178;4.138;2022-12-18T03:57:20;-2.40;73.50
76172;DHT22;64929;51.178;4.138;2022-12-18T03:59:50;-2.30;74.20
76172;DHT22;64929;51.178;4.138;2022-12-18T04:02:18;-2.40;73.90
76172;DHT22;64929;51.178;4.138;2022-12-18T04:04:44;-2.60;74.70
76172;DHT22;64929;51.178;4.138;2022-12-18T04:07:13;-2.70;75.40
76172;DHT22;64929;51.178;4.138;2022-12-18T04:09:39;-2.60;74.90
76172;DHT22;64929;51.178;4.138;2022-12-18T04:12:06;-2.60;74.80
76172;DHT22;64929;51.178;4.138;2022-12-18T04:14:33;-2.60;74.90
76172;DHT22;64929;51.178;4.138;2022-12-18T04:17:01;-2.50;74.00
76172;DHT22;64929;51.178;4.138;2022-12-18T04:19:27;-2.50;74.40
76172;DHT22;64929;51.178;4.138;2022-12-18T04:21:53;-2.40;74.00
76172;DHT22;64929;51.178;4.138;2022-12-18T04:24:19;-2.20;72.90
76172;DHT22;64929;51.178;4.138;2022-12-18T04:26:45;-2.40;73.60
76172;DHT22;64929;51.178;4.138;2022-12-18T04:29:11;-2.50;73.90
76172;DHT22;64929;51.178;4.138;2022-12-18T04:31:36;-2.50;74.80
76172;DHT22;64929;51.178;4.138;2022-12-18T04:34:03;-2.60;74.90
76172;DHT22;64929;51.178;4.138;2022-12-18T04:36:29;-2.50;75.00
76172;DHT22;64929;51.178;4.138;2022-12-18T04:38:55;-2.60;74.70
76172;DHT22;64929;51.178;4.138;2022-12-18T04:41:20;-2.50;75.20
76172;DHT22;64929;51.178;4.138;2022-12-18T04:43:46;-2.30;74.10
76172;DHT22;64929;51.178;4.138;2022-12-18T04:46:12;-2.20;73.60
76172;DHT22;64929;51.178;4.138;2022-12-18T04:48:38;-2.20;73.90
76172;DHT22;64929;51.178;4.138;2022-12-18T04:51:04;-2.20;73.40
76172;DHT22;64929;51.178;4.138;2022-12-18T04:53:30;-2.30;73.80
76172;DHT22;64929;51.178;4.138;2022-12-18T04:56:07;-2.40;74.60
76172;DHT22;64929;51.178;4.138;2022-12-18T04:58:33;-2.50;74.50
76172;DHT22;64929;51.178;4.138;2022-12-18T05:00:58;-2.40;74.60
76172;DHT22;64929;51.178;4.138;2022-12-18T05:03:24;-2.30;74.20
76172;DHT22;64929;51.178;4.138;2022-12-18T05:05:50;-2.20;73.50
76172;DHT22;64929;51.178;4.138;2022-12-18T05:08:17;-2.20;73.20
76172;DHT22;64929;51.178;4.138;2022-12-18T05:10:42;-2.20;73.20
76172;DHT22;64929;51.178;4.138;2022-12-18T05:13:09;-2.20;73.10
76172;DHT22;64929;51.178;4.138;2022-12-18T05:15:35;-2.20;73.00
76172;DHT22;64929;51.178;4.138;2022-12-18T05:18:01;-2.30;73.70
76172;DHT22;64929;51.178;4.138;2022-12-18T05:20:27;-2.40;73.90
76172;DHT22;64929;51.178;4.138;2022-12-18T05:22:54;-2.40;74.00
76172;DHT22;64929;51.178;4.138;2022-12-18T05:25:20;-2.30;73.70
76172;DHT22;64929;51.178;4.138;2022-12-18T05:27:46;-2.40;73.40
76172;DHT22;64929;51.178;4.138;2022-12-18T05:30:13;-2.40;73.90
76172;DHT22;64929;51.178;4.138;2022-12-18T05:32:39;-2.50;74.00
76172;DHT22;64929;51.178;4.138;2022-12-18T05:35:07;-2.50;74.00
76172;DHT22;64929;51.178;4.138;2022-12-18T05:37:33;-2.40;73.40
76172;DHT22;64929;51.178;4.138;2022-12-18T05:39:59;-2.40;73.30
76172;DHT22;64929;51.178;4.138;2022-12-18T05:42:25;-2.40;73.30
76172;DHT22;64929;51.178;4.138;2022-12-18T05:44:50;-2.40;73.20
76172;DHT22;64929;51.178;4.138;2022-12-18T05:47:16;-2.40;73.10
76172;DHT22;64929;51.178;4.138;2022-12-18T05:49:42;-2.30;73.00
76172;DHT22;64929;51.178;4.138;2022-12-18T05:52:08;-2.20;72.90
76172;DHT22;64929;51.178;4.138;2022-12-18T05:54:34;-2.20;72.30
76172;DHT22;64929;51.178;4.138;2022-12-18T05:57:00;-2.00;71.80
76172;DHT22;64929;51.178;4.138;2022-12-18T05:59:26;-2.10;71.90
76172;DHT22;64929;51.178;4.138;2022-12-18T06:01:51;-2.10;72.00
76172;DHT22;64929;51.178;4.138;2022-12-18T06:04:17;-2.10;72.10
76172;DHT22;64929;51.178;4.138;2022-12-18T06:06:43;-2.10;72.50
76172;DHT22;64929;51.178;4.138;2022-12-18T06:09:08;-2.20;72.60
76172;DHT22;64929;51.178;4.138;2022-12-18T06:11:38;-2.20;72.00
76172;DHT22;64929;51.178;4.138;2022-12-18T06:14:05;-2.20;72.60
76172;DHT22;64929;51.178;4.138;2022-12-18T06:16:32;-2.20;72.80
76172;DHT22;64929;51.178;4.138;2022-12-18T06:19:02;-2.20;72.20
76172;DHT22;64929;51.178;4.138;2022-12-18T06:21:29;-2.20;72.00
76172;DHT22;64929;51.178;4.138;2022-12-18T06:23:55;-2.00;71.80
76172;DHT22;64929;51.178;4.138;2022-12-18T06:26:21;-2.10;71.80
76172;DHT22;64929;51.178;4.138;2022-12-18T06:28:47;-2.20;72.20
76172;DHT22;64929;51.178;4.138;2022-12-18T06:31:12;-2.20;72.50
76172;DHT22;64929;51.178;4.138;2022-12-18T06:33:39;-2.20;72.10
76172;DHT22;64929;51.178;4.138;2022-12-18T06:36:09;-2.10;72.10
76172;DHT22;64929;51.178;4.138;2022-12-18T06:38:37;-2.20;71.90
76172;DHT22;64929;51.178;4.138;2022-12-18T06:41:07;-2.20;72.10
76172;DHT22;64929;51.178;4.138;2022-12-18T06:43:33;-2.20;72.20
76172;DHT22;64929;51.178;4.138;2022-12-18T06:46:02;-2.10;71.60
76172;DHT22;64929;51.178;4.138;2022-12-18T06:48:28;-2.10;71.40
76172;DHT22;64929;51.178;4.138;2022-12-18T06:50:54;-2.20;71.90
76172;DHT22;64929;51.178;4.138;2022-12-18T06:53:19;-2.20;72.00
76172;DHT22;64929;51.178;4.138;2022-12-18T06:55:45;-2.10;71.80
76172;DHT22;64929;51.178;4.138;2022-12-18T06:58:10;-2.10;72.00
76172;DHT22;64929;51.178;4.138;2022-12-18T07:00:36;-2.00;71.80
76172;DHT22;64929;51.178;4.138;2022-12-18T07:03:02;-2.10;71.60
76172;DHT22;64929;51.178;4.138;2022-12-18T07:05:27;-2.20;72.30
76172;DHT22;64929;51.178;4.138;2022-12-18T07:07:53;-2.30;72.70
76172;DHT22;64929;51.178;4.138;2022-12-18T07:10:19;-2.20;72.00
76172;DHT22;64929;51.178;4.138;2022-12-18T07:12:45;-2.30;71.90
76172;DHT22;64929;51.178;4.138;2022-12-18T07:15:10;-2.30;72.50
76172;DHT22;64929;51.178;4.138;2022-12-18T07:17:36;-2.40;72.20
76172;DHT22;64929;51.178;4.138;2022-12-18T07:20:02;-2.30;72.10
76172;DHT22;64929;51.178;4.138;2022-12-18T07:22:28;-2.30;72.00
76172;DHT22;64929;51.178;4.138;2022-12-18T07:24:53;-2.30;72.10
76172;DHT22;64929;51.178;4.138;2022-12-18T07:27:20;-2.30;72.10
76172;DHT22;64929;51.178;4.138;2022-12-18T07:29:46;-2.30;71.80
76172;DHT22;64929;51.178;4.138;2022-12-18T07:32:12;-2.30;71.80
76172;DHT22;64929;51.178;4.138;2022-12-18T07:34:37;-2.40;72.10
76172;DHT22;64929;51.178;4.138;2022-12-18T07:37:03;-2.30;71.70
76172;DHT22;64929;51.178;4.138;2022-12-18T07:39:28;-2.20;71.50
76172;DHT22;64929;51.178;4.138;2022-12-18T07:41:54;-2.40;71.80
76172;DHT22;64929;51.178;4.138;2022-12-18T07:44:38;-2.50;72.10
76172;DHT22;64929;51.178;4.138;2022-12-18T07:47:04;-2.50;72.20
76172;DHT22;64929;51.178;4.138;2022-12-18T07:49:30;-2.40;72.00
76172;DHT22;64929;51.178;4.138;2022-12-18T07:51:56;-2.40;71.40
76172;DHT22;64929;51.178;4.138;2022-12-18T07:54:23;-2.40;71.40
76172;DHT22;64929;51.178;4.138;2022-12-18T07:56:49;-2.50;71.90
76172;DHT22;64929;51.178;4.138;2022-12-18T07:59:15;-2.50;71.60
76172;DHT22;64929;51.178;4.138;2022-12-18T08:01:40;-2.50;72.40
76172;DHT22;64929;51.178;4.138;2022-12-18T08:04:06;-2.50;72.00
76172;DHT22;64929;51.178;4.138;2022-12-18T08:06:32;-2.60;72.20
76172;DHT22;64929;51.178;4.138;2022-12-18T08:08:57;-2.50;71.90
76172;DHT22;64929;51.178;4.138;2022-12-18T08:11:25;-2.40;71.60
76172;DHT22;64929;51.178;4.138;2022-12-18T08:13:51;-2.40;71.60
76172;DHT22;64929;51.178;4.138;2022-12-18T08:16:17;-2.30;71.30
76172;DHT22;64929;51.178;4.138;2022-12-18T08:18:43;-2.30;71.10
76172;DHT22;64929;51.178;4.138;2022-12-18T08:21:20;-2.20;70.80
76172;DHT22;64929;51.178;4.138;2022-12-18T08:23:47;-2.30;71.00
76172;DHT22;64929;51.178;4.138;2022-12-18T08:26:13;-2.30;71.30
76172;DHT22;64929;51.178;4.138;2022-12-18T08:28:39;-2.40;71.30
76172;DHT22;64929;51.178;4.138;2022-12-18T08:31:06;-2.60;72.20
76172;DHT22;64929;51.178;4.138;2022-12-18T08:33:40;-2.50;72.20
76172;DHT22;64929;51.178;4.138;2022-12-18T08:36:08;-2.50;72.50
76172;DHT22;64929;51.178;4.138;2022-12-18T08:38:35;-2.30;72.70
76172;DHT22;64929;51.178;4.138;2022-12-18T08:41:03;-2.10;71.70
76172;DHT22;64929;51.178;4.138;2022-12-18T08:43:29;-2.00;70.80
76172;DHT22;64929;51.178;4.138;2022-12-18T08:46:13;-1.90;70.80
76172;DHT22;64929;51.178;4.138;2022-12-18T08:48:44;-2.00;70.50
76172;DHT22;64929;51.178;4.138;2022-12-18T08:51:10;-2.00;71.50
76172;DHT22;64929;51.178;4.138;2022-12-18T08:53:36;-1.90;70.90
76172;DHT22;64929;51.178;4.138;2022-12-18T08:56:08;-1.80;70.80
76172;DHT22;64929;51.178;4.138;2022-12-18T08:58:34;-1.80;70.40
76172;DHT22;64929;51.178;4.138;2022-12-18T09:01:01;-1.70;70.90
76172;DHT22;64929;51.178;4.138;2022-12-18T09:03:27;-1.70;70.40
76172;DHT22;64929;51.178;4.138;2022-12-18T09:05:53;-1.70;70.90
76172;DHT22;64929;51.178;4.138;2022-12-18T09:08:19;-1.70;70.60
76172;DHT22;64929;51.178;4.138;2022-12-18T09:10:46;-1.60;70.10
76172;DHT22;64929;51.178;4.138;2022-12-18T09:13:13;-1.50;69.90
76172;DHT22;64929;51.178;4.138;2022-12-18T09:15:48;-1.50;69.90
76172;DHT22;64929;51.178;4.138;2022-12-18T09:18:16;-1.50;69.50
76172;DHT22;64929;51.178;4.138;2022-12-18T09:20:42;-1.60;69.20
76172;DHT22;64929;51.178;4.138;2022-12-18T09:23:08;-1.50;68.90
76172;DHT22;64929;51.178;4.138;2022-12-18T09:25:35;-1.50;69.50
76172;DHT22;64929;51.178;4.138;2022-12-18T09:28:12;-1.50;69.40
76172;DHT22;64929;51.178;4.138;2022-12-18T09:30:41;-1.60;69.30
76172;DHT22;64929;51.178;4.138;2022-12-18T09:33:07;-1.50;69.70
76172;DHT22;64929;51.178;4.138;2022-12-18T09:35:35;-1.40;69.50
76172;DHT22;64929;51.178;4.138;2022-12-18T09:38:01;-1.50;70.20
76172;DHT22;64929;51.178;4.138;2022-12-18T09:40:51;-1.40;70.10
76172;DHT22;64929;51.178;4.138;2022-12-18T09:43:22;-1.20;69.90
76172;DHT22;64929;51.178;4.138;2022-12-18T09:45:53;-1.20;69.20
76172;DHT22;64929;51.178;4.138;2022-12-18T09:48:32;-1.20;69.20
76172;DHT22;64929;51.178;4.138;2022-12-18T09:51:10;-1.20;69.00
76172;DHT22;64929;51.178;4.138;2022-12-18T09:53:39;-1.20;69.00
76172;DHT22;64929;51.178;4.138;2022-12-18T09:56:07;-1.20;68.70
76172;DHT22;64929;51.178;4.138;2022-12-18T09:58:46;-1.30;68.70
76172;DHT22;64929;51.178;4.138;2022-12-18T10:01:20;-1.50;69.90
76172;DHT22;64929;51.178;4.138;2022-12-18T10:03:47;-1.30;69.90
76172;DHT22;64929;51.178;4.138;2022-12-18T10:09:02;-1.30;69.90
76172;DHT22;64929;51.178;4.138;2022-12-18T10:16:59;-1.20;70.00
76172;DHT22;64929;51.178;4.138;2022-12-18T10:19:37;-1.20;70.00
76172;DHT22;64929;51.178;4.138;2022-12-18T10:22:27;-1.10;69.80
76172;DHT22;64929;51.178;4.138;2022-12-18T10:25:01;-1.00;70.00
76172;DHT22;64929;51.178;4.138;2022-12-18T10:27:30;-1.10;70.40
76172;DHT22;64929;51.178;4.138;2022-12-18T10:29:56;-1.00;70.80
76172;DHT22;64929;51.178;4.138;2022-12-18T10:32:28;-0.90;70.40
76172;DHT22;64929;51.178;4.138;2022-12-18T10:34:56;-0.90;70.00
76172;DHT22;64929;51.178;4.138;2022-12-18T10:37:24;-0.70;70.10
76172;DHT22;64929;51.178;4.138;2022-12-18T10:40:07;-0.70;69.30
76172;DHT22;64929;51.178;4.138;2022-12-18T10:42:33;-0.60;68.80
76172;DHT22;64929;51.178;4.138;2022-12-18T10:45:16;-0.50;69.50
76172;DHT22;64929;51.178;4.138;2022-12-18T10:47:48;-0.40;69.50
76172;DHT22;64929;51.178;4.138;2022-12-18T10:50:28;-0.30;68.70
76172;DHT22;64929;51.178;4.138;2022-12-18T10:52:57;-0.30;68.00
76172;DHT22;64929;51.178;4.138;2022-12-18T10:55:23;-0.40;67.60
76172;DHT22;64929;51.178;4.138;2022-12-18T10:57:51;-0.40;68.00
76172;DHT22;64929;51.178;4.138;2022-12-18T11:00:29;-0.40;68.50
76172;DHT22;64929;51.178;4.138;2022-12-18T11:02:56;-0.30;68.30
76172;DHT22;64929;51.178;4.138;2022-12-18T11:05:30;-0.30;68.20
76172;DHT22;64929;51.178;4.138;2022-12-18T11:07:57;-0.30;68.30
76172;DHT22;64929;51.178;4.138;2022-12-18T11:10:35;-0.30;68.70
76172;DHT22;64929;51.178;4.138;2022-12-18T11:15:42;-0.10;68.40
76172;DHT22;64929;51.178;4.138;2022-12-18T11:18:34;0.00;67.70
76172;DHT22;64929;51.178;4.138;2022-12-18T11:21:09;0.10;67.80
76172;DHT22;64929;51.178;4.138;2022-12-18T11:23:36;0.10;68.10
76172;DHT22;64929;51.178;4.138;2022-12-18T11:26:04;0.20;68.50
76172;DHT22;64929;51.178;4.138;2022-12-18T11:28:53;0.20;68.00
76172;DHT22;64929;51.178;4.138;2022-12-18T11:31:32;0.30;68.40
76172;DHT22;64929;51.178;4.138;2022-12-18T11:34:20;0.30;67.90
76172;DHT22;64929;51.178;4.138;2022-12-18T11:36:48;0.20;67.00
76172;DHT22;64929;51.178;4.138;2022-12-18T11:50:03;0.10;68.10
76172;DHT22;64929;51.178;4.138;2022-12-18T11:52:37;0.10;68.10
76172;DHT22;64929;51.178;4.138;2022-12-18T12:25:05;0.00;69.80
76172;DHT22;64929;51.178;4.138;2022-12-18T12:27:46;0.30;69.00
76172;DHT22;64929;51.178;4.138;2022-12-18T12:30:21;0.60;68.00
76172;DHT22;64929;51.178;4.138;2022-12-18T12:34:13;0.60;67.90
76172;DHT22;64929;51.178;4.138;2022-12-18T12:36:09;0.50;67.70
76172;DHT22;64929;51.178;4.138;2022-12-18T12:38:44;0.40;68.90
76172;DHT22;64929;51.178;4.138;2022-12-18T12:41:14;0.50;69.10
76172;DHT22;64929;51.178;4.138;2022-12-18T12:44:04;0.70;68.30
76172;DHT22;64929;51.178;4.138;2022-12-18T12:46:35;0.60;68.50
76172;DHT22;64929;51.178;4.138;2022-12-18T12:49:03;0.70;68.70
76172;DHT22;64929;51.178;4.138;2022-12-18T12:51:40;0.60;68.20
76172;DHT22;64929;51.178;4.138;2022-12-18T12:54:13;0.80;68.30
76172;DHT22;64929;51.178;4.138;2022-12-18T13:04:38;0.90;67.80
76172;DHT22;64929;51.178;4.138;2022-12-18T13:07:37;0.80;68.80
76172;DHT22;64929;51.178;4.138;2022-12-18T13:15:45;1.10;67.90
76172;DHT22;64929;51.178;4.138;2022-12-18T13:18:22;1.30;67.80
76172;DHT22;64929;51.178;4.138;2022-12-18T13:23:29;1.40;67.60
76172;DHT22;64929;51.178;4.138;2022-12-18T13:31:57;1.20;68.80
76172;DHT22;64929;51.178;4.138;2022-12-18T13:34:20;1.30;68.20
76172;DHT22;64929;51.178;4.138;2022-12-18T13:36:47;1.10;68.40
76172;DHT22;64929;51.178;4.138;2022-12-18T13:41:49;1.10;68.90
76172;DHT22;64929;51.178;4.138;2022-12-18T13:44:37;1.10;68.50
76172;DHT22;64929;51.178;4.138;2022-12-18T13:47:34;1.10;69.10
76172;DHT22;64929;51.178;4.138;2022-12-18T13:50:17;1.10;68.40
76172;DHT22;64929;51.178;4.138;2022-12-18T13:52:45;1.20;67.80
76172;DHT22;64929;51.178;4.138;2022-12-18T13:55:17;1.10;68.10
76172;DHT22;64929;51.178;4.138;2022-12-18T13:57:43;1.00;69.10
76172;DHT22;64929;51.178;4.138;2022-12-18T14:00:32;1.00;69.00
76172;DHT22;64929;51.178;4.138;2022-12-18T14:02:59;0.90;69.50
76172;DHT22;64929;51.178;4.138;2022-12-18T14:05:30;0.90;69.60
76172;DHT22;64929;51.178;4.138;2022-12-18T14:08:01;1.00;69.80
76172;DHT22;64929;51.178;4.138;2022-12-18T14:10:27;1.00;69.70
76172;DHT22;64929;51.178;4.138;2022-12-18T14:12:57;1.00;69.60
76172;DHT22;64929;51.178;4.138;2022-12-18T14:15:43;0.90;70.10
76172;DHT22;64929;51.178;4.138;2022-12-18T14:20:48;0.50;72.10
76172;DHT22;64929;51.178;4.138;2022-12-18T14:23:47;0.60;71.90
76172;DHT22;64929;51.178;4.138;2022-12-18T14:26:25;0.80;71.30
76172;DHT22;64929;51.178;4.138;2022-12-18T14:28:53;0.80;71.30
76172;DHT22;64929;51.178;4.138;2022-12-18T14:31:25;0.80;71.80
76172;DHT22;64929;51.178;4.138;2022-12-18T14:33:51;0.70;72.20
76172;DHT22;64929;51.178;4.138;2022-12-18T14:36:20;0.80;71.10
76172;DHT22;64929;51.178;4.138;2022-12-18T14:38:54;0.80;71.10
76172;DHT22;64929;51.178;4.138;2022-12-18T14:41:21;0.80;71.10
76172;DHT22;64929;51.178;4.138;2022-12-18T14:43:49;0.80;71.30
76172;DHT22;64929;51.178;4.138;2022-12-18T14:46:37;0.90;71.10
76172;DHT22;64929;51.178;4.138;2022-12-18T14:49:31;1.10;70.80
76172;DHT22;64929;51.178;4.138;2022-12-18T14:52:02;1.10;70.50
76172;DHT22;64929;51.178;4.138;2022-12-18T14:54:33;1.00;70.30
76172;DHT22;64929;51.178;4.138;2022-12-18T14:57:28;1.00;70.70
76172;DHT22;64929;51.178;4.138;2022-12-18T14:59:52;1.00;70.60
76172;DHT22;64929;51.178;4.138;2022-12-18T15:02:26;1.20;70.60
76172;DHT22;64929;51.178;4.138;2022-12-18T15:07:43;1.40;69.30
76172;DHT22;64929;51.178;4.138;2022-12-18T15:12:49;1.30;69.50
76172;DHT22;64929;51.178;4.138;2022-12-18T15:15:45;1.30;69.40
76172;DHT22;64929;51.178;4.138;2022-12-18T15:18:14;1.30;69.50
76172;DHT22;64929;51.178;4.138;2022-12-18T15:20:54;1.30;69.30
76172;DHT22;64929;51.178;4.138;2022-12-18T15:25:59;1.20;70.10
76172;DHT22;64929;51.178;4.138;2022-12-18T15:33:46;1.30;69.60
76172;DHT22;64929;51.178;4.138;2022-12-18T15:36:25;1.20;69.10
76172;DHT22;64929;51.178;4.138;2022-12-18T15:38:52;1.30;69.20
76172;DHT22;64929;51.178;4.138;2022-12-18T15:41:19;1.30;68.50
76172;DHT22;64929;51.178;4.138;2022-12-18T15:43:48;1.30;68.60
76172;DHT22;64929;51.178;4.138;2022-12-18T15:46:15;1.40;68.30
76172;DHT22;64929;51.178;4.138;2022-12-18T15:48:49;1.30;67.90
76172;DHT22;64929;51.178;4.138;2022-12-18T15:53:46;1.50;67.40
76172;DHT22;64929;51.178;4.138;2022-12-18T15:56:14;1.60;67.40
76172;DHT22;64929;51.178;4.138;2022-12-18T15:58:58;1.60;67.40
76172;DHT22;64929;51.178;4.138;2022-12-18T16:01:27;1.70;66.50
76172;DHT22;64929;51.178;4.138;2022-12-18T16:03:53;1.60;67.00
76172;DHT22;64929;51.178;4.138;2022-12-18T16:06:20;1.50;66.50
76172;DHT22;64929;51.178;4.138;2022-12-18T16:08:46;1.50;66.80
76172;DHT22;64929;51.178;4.138;2022-12-18T16:14:24;1.50;66.40
76172;DHT22;64929;51.178;4.138;2022-12-18T16:16:54;1.50;66.70
76172;DHT22;64929;51.178;4.138;2022-12-18T16:19:20;1.60;67.50
76172;DHT22;64929;51.178;4.138;2022-12-18T16:21:47;1.60;66.80
76172;DHT22;64929;51.178;4.138;2022-12-18T16:24:19;1.60;66.30
76172;DHT22;64929;51.178;4.138;2022-12-18T16:26:48;1.50;66.50
76172;DHT22;64929;51.178;4.138;2022-12-18T16:29:14;1.60;66.60
76172;DHT22;64929;51.178;4.138;2022-12-18T16:31:40;1.60;66.70
76172;DHT22;64929;51.178;4.138;2022-12-18T16:34:23;1.60;66.30
76172;DHT22;64929;51.178;4.138;2022-12-18T16:36:52;1.70;65.50
76172;DHT22;64929;51.178;4.138;2022-12-18T16:39:19;1.70;66.00
76172;DHT22;64929;51.178;4.138;2022-12-18T16:41:45;1.70;65.70
76172;DHT22;64929;51.178;4.138;2022-12-18T16:44:11;1.60;65.80
76172;DHT22;64929;51.178;4.138;2022-12-18T16:46:38;1.50;66.20
76172;DHT22;64929;51.178;4.138;2022-12-18T16:49:04;1.60;66.40
76172;DHT22;64929;51.178;4.138;2022-12-18T16:51:30;1.80;65.40
76172;DHT22;64929;51.178;4.138;2022-12-18T16:53:56;1.70;64.90
76172;DHT22;64929;51.178;4.138;2022-12-18T16:56:22;1.70;65.10
76172;DHT22;64929;51.178;4.138;2022-12-18T16:58:58;1.70;65.20
76172;DHT22;64929;51.178;4.138;2022-12-18T17:01:24;1.70;66.00
76172;DHT22;64929;51.178;4.138;2022-12-18T17:04:01;1.80;65.10
76172;DHT22;64929;51.178;4.138;2022-12-18T17:06:28;1.80;65.10
76172;DHT22;64929;51.178;4.138;2022-12-18T17:08:59;1.70;65.10
76172;DHT22;64929;51.178;4.138;2022-12-18T17:11:26;1.70;65.50
76172;DHT22;64929;51.178;4.138;2022-12-18T17:13:52;1.70;65.50
76172;DHT22;64929;51.178;4.138;2022-12-18T17:16:18;1.70;65.80
76172;DHT22;64929;51.178;4.138;2022-12-18T17:18:44;1.80;66.20
76172;DHT22;64929;51.178;4.138;2022-12-18T17:21:10;1.80;66.20
76172;DHT22;64929;51.178;4.138;2022-12-18T17:23:37;1.90;66.50
76172;DHT22;64929;51.178;4.138;2022-12-18T17:26:03;1.90;66.40
76172;DHT22;64929;51.178;4.138;2022-12-18T17:28:31;1.80;67.40
76172;DHT22;64929;51.178;4.138;2022-12-18T17:30:57;1.80;67.30
76172;DHT22;64929;51.178;4.138;2022-12-18T17:33:24;1.80;68.40
76172;DHT22;64929;51.178;4.138;2022-12-18T17:35:49;1.90;67.90
76172;DHT22;64929;51.178;4.138;2022-12-18T17:38:16;1.90;68.30
76172;DHT22;64929;51.178;4.138;2022-12-18T17:40:42;2.00;68.10
76172;DHT22;64929;51.178;4.138;2022-12-18T17:43:09;1.90;68.40
76172;DHT22;64929;51.178;4.138;2022-12-18T17:45:35;1.90;70.00
76172;DHT22;64929;51.178;4.138;2022-12-18T17:48:02;1.80;71.10
76172;DHT22;64929;51.178;4.138;2022-12-18T17:50:28;1.80;71.60
76172;DHT22;64929;51.178;4.138;2022-12-18T17:52:57;1.70;71.40
76172;DHT22;64929;51.178;4.138;2022-12-18T17:55:23;1.80;72.80
76172;DHT22;64929;51.178;4.138;2022-12-18T17:57:49;1.90;72.50
76172;DHT22;64929;51.178;4.138;2022-12-18T18:00:15;1.90;72.50
76172;DHT22;64929;51.178;4.138;2022-12-18T18:02:41;1.80;72.80